createdAt,value
2023-02-19T00:01:52.265Z,8.40
2023-02-19T00:04:25.005Z,8.00
2023-02-19T00:06:53.048Z,8.70
2023-02-19T00:09:21.724Z,8.30
2023-02-19T00:11:49.874Z,8.90
2023-02-19T00:14:20.700Z,8.20
2023-02-19T00:16:49.146Z,11.10
2023-02-19T00:19:19.458Z,8.00
2023-02-19T00:21:50.504Z,8.20
2023-02-19T00:24:19.208Z,7.80
2023-02-19T00:26:47.807Z,8.70
2023-02-19T00:29:20.720Z,8.80
2023-02-19T00:31:49.058Z,8.30
2023-02-19T00:34:17.149Z,8.40
2023-02-19T00:36:45.257Z,8.50
2023-02-19T00:39:16.349Z,7.90
2023-02-19T00:41:44.616Z,8.50
2023-02-19T00:44:13.446Z,7.90
2023-02-19T00:46:47.095Z,7.40
2023-02-19T00:49:18.678Z,7.50
2023-02-19T00:51:47.421Z,7.90
2023-02-19T00:54:16.199Z,7.30
2023-02-19T00:56:44.474Z,6.80
2023-02-19T00:59:13.804Z,7.60
2023-02-19T01:01:44.450Z,8.10
2023-02-19T01:04:13.031Z,7.00
2023-02-19T01:06:41.906Z,6.80
2023-02-19T01:09:10.025Z,8.30
2023-02-19T01:11:38.098Z,6.80
2023-02-19T01:14:06.276Z,7.40
2023-02-19T01:16:34.423Z,7.00
2023-02-19T01:19:03.203Z,7.20
2023-02-19T01:21:31.703Z,6.90
2023-02-19T01:24:00.237Z,6.50
2023-02-19T01:26:30.933Z,6.80
2023-02-19T01:29:01.242Z,6.80
2023-02-19T01:31:30.124Z,6.60
2023-02-19T01:34:01.239Z,8.00
2023-02-19T01:36:32.253Z,6.70
2023-02-19T01:39:04.141Z,6.40
2023-02-19T01:41:35.210Z,4.70
2023-02-19T01:44:09.594Z,5.90
2023-02-19T01:46:46.405Z,7.20
2023-02-19T01:49:21.295Z,5.00
2023-02-19T01:52:00.769Z,5.90
2023-02-19T01:54:32.513Z,6.20
2023-02-19T01:57:04.689Z,5.90
2023-02-19T01:59:34.099Z,6.00
2023-02-19T02:02:02.333Z,6.60
2023-02-19T02:04:34.024Z,5.30
2023-02-19T02:07:24.488Z,5.20
2023-02-19T02:10:11.685Z,5.00
2023-02-19T02:12:39.863Z,5.60
2023-02-19T02:15:08.615Z,4.90
2023-02-19T02:18:01.203Z,5.60
2023-02-19T02:21:01.782Z,5.20
2023-02-19T02:23:32.693Z,5.20
2023-02-19T02:26:19.699Z,5.90
2023-02-19T02:29:05.936Z,5.90
2023-02-19T02:31:39.692Z,5.40
2023-02-19T02:34:14.631Z,5.30
2023-02-19T02:36:46.039Z,6.80
2023-02-19T02:39:18.951Z,5.30
2023-02-19T02:42:14.543Z,4.60
2023-02-19T02:45:02.024Z,5.00
2023-02-19T02:47:42.928Z,5.20
2023-02-19T02:50:21.730Z,6.10
2023-02-19T02:53:14.690Z,6.10
2023-02-19T02:55:47.316Z,4.80
2023-02-19T02:58:16.951Z,4.60
2023-02-19T03:01:12.159Z,5.50
2023-02-19T03:03:43.609Z,6.40
2023-02-19T03:06:15.249Z,4.20
2023-02-19T03:09:11.601Z,4.00
2023-02-19T03:12:02.290Z,6.00
2023-02-19T03:15:01.313Z,5.00
2023-02-19T03:17:57.630Z,4.50
2023-02-19T03:20:28.144Z,5.70
2023-02-19T03:22:57.677Z,3.70
2023-02-19T03:25:49.106Z,5.20
2023-02-19T03:28:44.836Z,4.90
2023-02-19T03:31:18.133Z,4.80
2023-02-19T03:33:52.175Z,3.50
2023-02-19T03:36:28.779Z,4.10
2023-02-19T03:39:02.504Z,3.60
2023-02-19T03:41:46.851Z,4.50
2023-02-19T03:44:27.403Z,5.10
2023-02-19T03:47:03.671Z,4.20
2023-02-19T03:49:49.181Z,3.50
2023-02-19T03:52:48.212Z,3.60
2023-02-19T03:55:51.205Z,4.70
2023-02-19T03:58:28.406Z,4.20
2023-02-19T04:01:02.693Z,3.90
2023-02-19T04:03:40.620Z,2.90
2023-02-19T04:06:17.542Z,3.30
2023-02-19T04:08:51.671Z,3.40
2023-02-19T04:11:22.528Z,3.60
2023-02-19T04:14:04.643Z,3.80
2023-02-19T04:16:34.785Z,3.60
2023-02-19T04:19:08.930Z,4.40
2023-02-19T04:21:39.921Z,4.40
2023-02-19T04:24:14.586Z,3.50
2023-02-19T04:26:44.227Z,4.40
2023-02-19T04:29:12.219Z,5.10
2023-02-19T04:31:40.383Z,3.10
2023-02-19T04:34:08.445Z,4.00
2023-02-19T04:36:36.485Z,3.80
2023-02-19T04:39:04.554Z,3.70
2023-02-19T04:41:32.713Z,4.60
2023-02-19T04:44:00.817Z,4.60
2023-02-19T04:46:28.917Z,3.40
2023-02-19T04:48:56.925Z,3.80
2023-02-19T04:51:25.226Z,4.40
2023-02-19T04:53:53.321Z,4.60
2023-02-19T04:56:21.520Z,3.60
2023-02-19T04:58:49.741Z,3.70
2023-02-19T05:01:18.002Z,4.00
2023-02-19T05:03:46.859Z,4.60
2023-02-19T05:06:15.226Z,4.30
2023-02-19T05:08:43.229Z,4.80
2023-02-19T05:11:13.056Z,4.30
2023-02-19T05:13:41.499Z,5.00
2023-02-19T05:16:16.209Z,5.40
2023-02-19T05:18:46.840Z,5.70
2023-02-19T05:21:15.857Z,4.90
2023-02-19T05:23:43.971Z,6.80
2023-02-19T05:26:21.348Z,4.80
2023-02-19T05:28:52.119Z,5.20
2023-02-19T05:31:21.308Z,5.70
2023-02-19T05:33:51.402Z,5.80
2023-02-19T05:36:21.601Z,7.40
2023-02-19T05:38:54.796Z,6.80
2023-02-19T05:41:29.151Z,7.10
2023-02-19T05:43:58.260Z,8.80
2023-02-19T05:46:29.817Z,7.40
2023-02-19T05:49:00.724Z,6.90
2023-02-19T05:51:29.256Z,7.40
2023-02-19T05:53:57.446Z,7.30
2023-02-19T05:56:34.821Z,7.00
2023-02-19T05:59:07.950Z,8.20
2023-02-19T06:01:36.792Z,6.20
2023-02-19T06:04:05.289Z,6.90
2023-02-19T06:06:33.323Z,5.90
2023-02-19T06:09:01.453Z,5.90
2023-02-19T06:11:29.983Z,7.10
2023-02-19T06:13:58.296Z,6.80
2023-02-19T06:16:26.535Z,6.90
2023-02-19T06:18:54.723Z,6.10
2023-02-19T06:21:22.941Z,5.60
2023-02-19T06:23:50.978Z,6.30
2023-02-19T06:26:22.447Z,5.30
2023-02-19T06:28:52.250Z,5.00
2023-02-19T06:31:22.135Z,6.30
2023-02-19T06:33:50.898Z,8.10
2023-02-19T06:36:20.998Z,6.50
2023-02-19T06:38:49.345Z,6.90
2023-02-19T06:41:17.926Z,6.50
2023-02-19T06:43:46.722Z,7.10
2023-02-19T06:46:14.837Z,7.50
2023-02-19T06:48:44.593Z,6.60
2023-02-19T06:51:19.552Z,8.90
2023-02-19T06:53:47.676Z,5.70
2023-02-19T06:56:25.251Z,8.00
2023-02-19T06:58:59.928Z,7.00
2023-02-19T07:01:33.259Z,6.50
2023-02-19T07:04:01.781Z,7.80
2023-02-19T07:06:30.352Z,5.70
2023-02-19T07:08:59.173Z,7.70
2023-02-19T07:11:30.538Z,7.80
2023-02-19T07:14:00.861Z,7.80
2023-02-19T07:16:29.589Z,6.90
2023-02-19T07:18:59.237Z,8.60
2023-02-19T07:21:28.142Z,6.70
2023-02-19T07:23:57.087Z,7.50
2023-02-19T07:26:25.739Z,7.50
2023-02-19T07:28:53.954Z,7.30
2023-02-19T07:31:24.116Z,8.40
2023-02-19T07:33:52.347Z,6.10
2023-02-19T07:36:21.853Z,7.30
2023-02-19T07:38:57.125Z,7.70
2023-02-19T07:43:56.507Z,8.40
2023-02-19T07:46:25.025Z,8.60
2023-02-19T07:48:53.059Z,7.30
2023-02-19T07:51:21.418Z,6.80
2023-02-19T07:53:53.420Z,8.80
2023-02-19T07:56:21.529Z,7.60
2023-02-19T07:58:49.748Z,7.60
2023-02-19T08:01:41.608Z,6.50
2023-02-19T08:04:12.056Z,7.60
2023-02-19T08:06:40.757Z,7.80
2023-02-19T08:09:09.396Z,9.30
2023-02-19T08:11:55.864Z,7.60
2023-02-19T08:14:28.044Z,7.60
2023-02-19T08:16:56.146Z,5.90
2023-02-19T08:19:24.365Z,6.50
2023-02-19T08:21:53.677Z,6.30
2023-02-19T08:24:21.854Z,6.40
2023-02-19T08:26:50.051Z,6.50
2023-02-19T08:29:18.439Z,6.30
2023-02-19T08:31:46.804Z,7.20
2023-02-19T08:34:14.982Z,6.60
2023-02-19T08:36:44.232Z,6.50
2023-02-19T08:39:12.395Z,7.20
2023-02-19T08:41:40.518Z,6.00
2023-02-19T08:44:08.636Z,6.30
2023-02-19T08:46:36.785Z,5.50
2023-02-19T08:49:04.924Z,4.50
2023-02-19T08:51:32.935Z,6.90
2023-02-19T08:54:03.320Z,6.70
2023-02-19T08:56:31.420Z,5.00
2023-02-19T08:58:59.761Z,4.90
2023-02-19T09:01:27.843Z,6.80
2023-02-19T09:03:55.909Z,5.20
2023-02-19T09:06:24.058Z,5.10
2023-02-19T09:08:52.199Z,5.30
2023-02-19T09:11:20.902Z,6.40
2023-02-19T09:13:49.083Z,4.60
2023-02-19T09:16:17.057Z,4.00
2023-02-19T09:18:45.860Z,4.90
2023-02-19T09:21:14.225Z,4.90
2023-02-19T09:23:42.445Z,4.30
2023-02-19T09:26:11.540Z,4.20
2023-02-19T09:28:41.866Z,5.60
2023-02-19T09:31:15.817Z,4.90
2023-02-19T09:33:45.755Z,3.70
2023-02-19T09:36:15.793Z,2.90
2023-02-19T09:38:44.199Z,3.30
2023-02-19T09:41:31.137Z,3.10
2023-02-19T09:44:00.690Z,3.10
2023-02-19T09:46:33.403Z,3.10
2023-02-19T09:49:24.692Z,2.50
2023-02-19T09:52:04.515Z,2.00
2023-02-19T09:54:34.578Z,3.20
2023-02-19T09:57:03.008Z,2.20
2023-02-19T09:59:42.448Z,2.20
2023-02-19T10:02:16.513Z,2.60
2023-02-19T10:04:46.495Z,1.70
2023-02-19T10:07:17.184Z,2.00
2023-02-19T10:09:48.860Z,2.30
2023-02-19T10:12:26.116Z,2.40
2023-02-19T10:15:01.808Z,1.80
2023-02-19T10:17:32.046Z,1.60
2023-02-19T10:20:03.873Z,2.10
2023-02-19T10:22:34.027Z,2.90
2023-02-19T10:25:02.799Z,2.40
2023-02-19T10:27:31.368Z,1.50
2023-02-19T10:30:01.053Z,1.40
2023-02-19T10:32:29.839Z,1.00
2023-02-19T10:35:13.051Z,2.00
2023-02-19T10:37:51.686Z,4.20
2023-02-19T10:40:23.696Z,0.90
2023-02-19T10:43:03.391Z,1.50
2023-02-19T10:45:39.836Z,1.50
2023-02-19T10:48:24.779Z,1.10
2023-02-19T10:50:58.171Z,1.20
2023-02-19T10:53:45.715Z,1.30
2023-02-19T10:56:25.829Z,1.20
2023-02-19T10:58:54.047Z,1.20
2023-02-19T11:01:28.510Z,1.00
2023-02-19T11:04:18.120Z,1.70
2023-02-19T11:06:47.144Z,0.90
2023-02-19T11:09:40.582Z,1.70
2023-02-19T11:12:10.525Z,1.20
2023-02-19T11:14:43.438Z,2.80
2023-02-19T11:17:24.622Z,1.60
2023-02-19T11:20:14.547Z,1.20
2023-02-19T11:22:46.981Z,1.10
2023-02-19T11:25:15.116Z,1.00
2023-02-19T11:27:58.340Z,1.60
2023-02-19T11:30:42.678Z,0.90
2023-02-19T11:33:24.415Z,2.40
2023-02-19T11:36:20.895Z,0.80
2023-02-19T11:38:52.132Z,1.50
2023-02-19T11:41:28.338Z,1.30
2023-02-19T11:44:05.501Z,1.10
2023-02-19T11:46:52.459Z,1.10
2023-02-19T11:49:46.427Z,0.80
2023-02-19T11:52:42.316Z,0.80
2023-02-19T11:55:34.469Z,0.60
2023-02-19T11:58:32.346Z,0.40
2023-02-19T12:01:18.266Z,0.50
2023-02-19T12:04:05.050Z,1.00
2023-02-19T12:06:44.942Z,0.70
2023-02-19T12:09:18.710Z,0.70
2023-02-19T12:11:53.666Z,0.50
2023-02-19T12:14:55.839Z,0.30
2023-02-19T12:17:42.246Z,0.40
2023-02-19T12:20:29.619Z,0.70
2023-02-19T12:23:24.574Z,0.80
2023-02-19T12:25:57.460Z,0.50
2023-02-19T12:29:00.590Z,2.70
2023-02-19T12:32:00.714Z,0.40
2023-02-19T12:34:37.686Z,0.70
2023-02-19T12:37:26.210Z,0.60
2023-02-19T12:40:12.977Z,0.30
2023-02-19T12:42:59.559Z,0.40
2023-02-19T12:45:47.126Z,0.90
2023-02-19T12:48:27.385Z,1.20
2023-02-19T12:51:08.325Z,0.50
2023-02-19T12:53:36.371Z,0.70
2023-02-19T12:56:11.345Z,0.80
2023-02-19T12:58:55.110Z,0.80
2023-02-19T13:01:28.370Z,0.40
2023-02-19T13:04:11.498Z,0.30
2023-02-19T13:06:53.143Z,0.90
2023-02-19T13:09:31.839Z,0.40
2023-02-19T13:12:07.530Z,0.30
2023-02-19T13:15:13.466Z,0.30
2023-02-19T13:17:56.072Z,0.30
2023-02-19T13:20:36.367Z,0.60
2023-02-19T13:23:44.033Z,0.50
2023-02-19T13:26:36.627Z,0.30
2023-02-19T13:29:38.191Z,0.40
2023-02-19T13:32:29.405Z,0.40
2023-02-19T13:35:41.886Z,0.40
2023-02-19T13:38:12.629Z,0.50
2023-02-19T13:40:43.032Z,0.40
2023-02-19T13:43:39.026Z,0.20
2023-02-19T13:46:10.686Z,0.50
2023-02-19T13:48:41.309Z,0.80
2023-02-19T13:51:24.483Z,1.50
2023-02-19T13:53:59.619Z,0.20
2023-02-19T13:59:29.445Z,0.40
2023-02-19T14:01:57.629Z,0.40
2023-02-19T14:04:51.684Z,0.30
2023-02-19T14:07:33.891Z,0.70
2023-02-19T14:10:03.019Z,0.70
2023-02-19T14:12:34.590Z,0.30
2023-02-19T14:15:44.126Z,0.20
2023-02-19T14:18:46.794Z,0.50
2023-02-19T14:21:26.706Z,0.30
2023-02-19T14:23:58.905Z,0.40
2023-02-19T14:26:30.453Z,0.60
2023-02-19T14:29:00.465Z,1.00
2023-02-19T14:31:32.599Z,0.50
2023-02-19T14:34:27.280Z,0.40
2023-02-19T14:37:01.746Z,0.80
2023-02-19T14:39:38.814Z,0.50
2023-02-19T14:42:18.609Z,0.70
2023-02-19T14:44:48.677Z,0.40
2023-02-19T14:47:23.219Z,0.50
2023-02-19T14:49:54.116Z,0.60
2023-02-19T14:52:26.577Z,0.60
2023-02-19T14:54:56.583Z,0.50
2023-02-19T14:57:32.847Z,0.80
2023-02-19T15:00:05.397Z,0.60
2023-02-19T15:02:42.027Z,0.40
2023-02-19T15:05:17.397Z,0.90
2023-02-19T15:07:45.764Z,0.60
2023-02-19T15:10:14.639Z,1.30
2023-02-19T15:12:47.838Z,0.70
2023-02-19T15:15:21.871Z,0.70
2023-02-19T15:17:52.227Z,1.20
2023-02-19T15:20:25.567Z,0.80
2023-02-19T15:22:54.963Z,1.00
2023-02-19T15:25:24.981Z,1.40
2023-02-19T15:27:52.970Z,0.70
2023-02-19T15:30:29.478Z,0.70
2023-02-19T15:33:00.369Z,0.90
2023-02-19T15:35:30.364Z,0.60
2023-02-19T15:37:58.364Z,0.90
2023-02-19T15:40:31.462Z,1.10
2023-02-19T15:43:00.507Z,0.80
2023-02-19T15:45:40.721Z,0.50
2023-02-19T15:48:21.448Z,1.20
2023-02-19T15:50:56.841Z,1.00
2023-02-19T15:53:29.831Z,1.10
2023-02-19T15:56:07.370Z,1.60
2023-02-19T15:58:38.191Z,0.80
2023-02-19T16:01:14.750Z,1.20
2023-02-19T16:03:43.165Z,1.00
2023-02-19T16:06:16.967Z,2.30
2023-02-19T16:09:06.245Z,3.40
2023-02-19T16:11:36.987Z,1.50
2023-02-19T16:14:17.479Z,1.30
2023-02-19T16:16:48.740Z,1.80
2023-02-19T16:19:22.092Z,2.70
2023-02-19T16:21:51.299Z,2.70
2023-02-19T16:24:31.508Z,2.60
2023-02-19T16:26:59.784Z,2.70
2023-02-19T16:29:30.900Z,2.30
2023-02-19T16:32:03.421Z,3.60
2023-02-19T16:34:40.131Z,3.60
2023-02-19T16:37:32.860Z,3.80
2023-02-19T16:40:11.149Z,3.20
2023-02-19T16:42:52.005Z,3.20
2023-02-19T16:45:20.259Z,3.10
2023-02-19T16:47:48.614Z,2.70
2023-02-19T16:50:23.181Z,4.60
2023-02-19T16:53:02.328Z,3.50
2023-02-19T16:55:34.792Z,2.80
2023-02-19T16:58:02.805Z,3.50
2023-02-19T17:00:31.601Z,2.20
2023-02-19T17:03:08.949Z,2.60
2023-02-19T17:05:39.740Z,3.60
2023-02-19T17:08:23.225Z,3.40
2023-02-19T17:10:51.278Z,2.30
2023-02-19T17:13:19.364Z,2.60
2023-02-19T17:15:47.314Z,3.10
2023-02-19T17:18:15.367Z,2.60
2023-02-19T17:20:48.633Z,2.70
2023-02-19T17:23:16.574Z,3.70
2023-02-19T17:25:44.629Z,1.60
2023-02-19T17:28:12.637Z,2.50
2023-02-19T17:30:40.773Z,3.30
2023-02-19T17:33:08.889Z,2.20
2023-02-19T17:35:36.892Z,5.50
2023-02-19T17:38:09.623Z,2.20
2023-02-19T17:40:38.349Z,2.50
2023-02-19T17:43:07.241Z,3.40
2023-02-19T17:45:35.379Z,3.10
2023-02-19T17:48:03.621Z,3.40
2023-02-19T17:50:32.458Z,2.10
2023-02-19T17:53:00.576Z,2.90
2023-02-19T17:55:28.685Z,2.20
2023-02-19T17:57:57.113Z,2.70
2023-02-19T18:00:28.130Z,2.20
2023-02-19T18:02:56.636Z,2.70
2023-02-19T18:05:24.905Z,3.70
2023-02-19T18:07:53.017Z,2.50
2023-02-19T18:10:23.560Z,3.10
2023-02-19T18:12:52.105Z,2.60
2023-02-19T18:15:23.116Z,2.90
2023-02-19T18:17:51.185Z,3.10
2023-02-19T18:20:37.454Z,1.90
2023-02-19T18:23:05.735Z,3.90
2023-02-19T18:25:33.853Z,3.20
2023-02-19T18:28:02.402Z,3.60
2023-02-19T18:30:30.804Z,2.60
2023-02-19T18:32:58.922Z,2.60
2023-02-19T18:35:27.003Z,3.50
2023-02-19T18:37:55.904Z,2.20
2023-02-19T18:40:27.248Z,2.50
2023-02-19T18:42:55.437Z,4.40
2023-02-19T18:45:23.541Z,2.10
2023-02-19T18:47:51.827Z,2.20
2023-02-19T18:50:20.410Z,2.40
2023-02-19T18:52:48.587Z,2.60
2023-02-19T18:55:16.778Z,3.30
2023-02-19T18:57:46.749Z,3.50
2023-02-19T19:00:21.093Z,3.50
2023-02-19T19:02:51.147Z,4.70
2023-02-19T19:05:22.934Z,2.90
2023-02-19T19:07:52.886Z,3.00
2023-02-19T19:10:21.156Z,3.90
2023-02-19T19:12:49.328Z,3.00
2023-02-19T19:15:18.908Z,3.10
2023-02-19T19:17:48.375Z,4.40
2023-02-19T19:20:19.432Z,2.50
2023-02-19T19:22:52.413Z,2.80
2023-02-19T19:25:22.849Z,3.20
2023-02-19T19:27:54.541Z,2.10
2023-02-19T19:30:23.019Z,2.70
2023-02-19T19:32:52.644Z,2.70
2023-02-19T19:35:21.774Z,1.50
2023-02-19T19:37:49.966Z,1.90
2023-02-19T19:40:20.400Z,1.70
2023-02-19T19:42:52.345Z,2.20
2023-02-19T19:45:20.462Z,1.70
2023-02-19T19:47:52.988Z,3.50
2023-02-19T19:50:21.401Z,2.80
2023-02-19T19:52:49.450Z,2.70
2023-02-19T19:55:17.968Z,2.90
2023-02-19T19:57:47.317Z,2.00
2023-02-19T20:00:18.162Z,1.50
2023-02-19T20:02:46.784Z,2.30
2023-02-19T20:05:15.516Z,2.00
2023-02-19T20:07:44.611Z,2.30
2023-02-19T20:10:13.901Z,3.60
2023-02-19T20:12:42.256Z,2.10
2023-02-19T20:15:10.769Z,3.40
2023-02-19T20:17:39.380Z,3.90
2023-02-19T20:20:08.120Z,4.00
2023-02-19T20:22:36.894Z,5.00
2023-02-19T20:25:05.711Z,5.90
2023-02-19T20:27:33.734Z,7.60
2023-02-19T20:30:01.887Z,6.40
2023-02-19T20:32:29.962Z,6.40
2023-02-19T20:34:58.009Z,5.80
2023-02-19T20:37:26.056Z,6.40
2023-02-19T20:39:54.088Z,6.60
2023-02-19T20:42:22.422Z,7.60
2023-02-19T20:44:50.501Z,7.70
2023-02-19T20:47:18.550Z,9.50
2023-02-19T20:49:46.978Z,7.70
2023-02-19T20:52:16.593Z,9.30
2023-02-19T20:54:45.015Z,6.80
2023-02-19T20:57:14.550Z,6.00
2023-02-19T20:59:44.327Z,4.40
2023-02-19T21:02:18.512Z,4.70
2023-02-19T21:04:46.802Z,6.90
2023-02-19T21:07:15.679Z,4.60
2023-02-19T21:09:43.667Z,5.90
2023-02-19T21:12:12.623Z,6.70
2023-02-19T21:14:41.733Z,5.50
2023-02-19T21:17:10.145Z,3.70
2023-02-19T21:19:38.351Z,3.50
2023-02-19T21:22:06.579Z,4.40
2023-02-19T21:24:34.654Z,3.20
2023-02-19T21:27:02.692Z,3.70
2023-02-19T21:29:30.742Z,4.30
2023-02-19T21:31:59.219Z,3.60
2023-02-19T21:34:29.380Z,2.30
2023-02-19T21:36:57.876Z,1.80
2023-02-19T21:39:27.615Z,2.60
2023-02-19T21:41:58.531Z,2.40
2023-02-19T21:44:26.545Z,2.10
2023-02-19T21:46:54.634Z,2.10
2023-02-19T21:49:22.721Z,2.40
2023-02-19T21:51:50.847Z,2.40
2023-02-19T21:54:24.647Z,2.20
2023-02-19T21:56:53.805Z,2.60
2023-02-19T21:59:22.621Z,2.70
2023-02-19T22:01:51.071Z,1.60
2023-02-19T22:04:22.229Z,1.60
2023-02-19T22:06:50.802Z,2.10
2023-02-19T22:09:18.874Z,2.60
2023-02-19T22:11:46.850Z,3.10
2023-02-19T22:14:14.910Z,1.90
2023-02-19T22:16:42.907Z,1.60
2023-02-19T22:19:12.879Z,1.80
2023-02-19T22:21:45.127Z,2.60
2023-02-19T22:24:16.631Z,1.30
2023-02-19T22:26:45.750Z,1.70
2023-02-19T22:29:15.421Z,2.10
2023-02-19T22:31:44.003Z,1.90
2023-02-19T22:34:12.258Z,2.00
2023-02-19T22:36:40.576Z,1.30
2023-02-19T22:39:16.780Z,1.90
2023-02-19T22:41:45.140Z,1.30
2023-02-19T22:44:13.565Z,1.70
2023-02-19T22:46:48.011Z,2.20
2023-02-19T22:49:16.439Z,1.00
2023-02-19T22:51:56.581Z,2.00
2023-02-19T22:54:27.077Z,2.20
2023-02-19T22:56:56.137Z,1.50
2023-02-19T22:59:24.279Z,2.00
2023-02-19T23:01:52.882Z,1.70
2023-02-19T23:04:22.461Z,2.10
2023-02-19T23:06:50.637Z,2.70
2023-02-19T23:09:25.675Z,2.60
2023-02-19T23:12:00.764Z,3.20
2023-02-19T23:14:29.056Z,1.50
2023-02-19T23:16:57.176Z,2.10
2023-02-19T23:19:25.872Z,3.40
2023-02-19T23:21:54.202Z,2.90
2023-02-19T23:24:22.452Z,1.60
2023-02-19T23:26:52.698Z,2.60
2023-02-19T23:29:25.299Z,3.10
2023-02-19T23:31:54.615Z,2.20
2023-02-19T23:34:23.041Z,1.80
2023-02-19T23:36:51.980Z,1.80
2023-02-19T23:39:21.629Z,2.40
2023-02-19T23:41:56.355Z,2.70
2023-02-19T23:44:25.884Z,3.60
2023-02-19T23:46:54.002Z,2.40
2023-02-19T23:49:22.105Z,3.80
2023-02-19T23:51:50.120Z,2.50
2023-02-19T23:54:18.120Z,2.50
2023-02-19T23:56:46.224Z,2.50
2023-02-19T23:59:14.484Z,2.50
